Time;durP1;ratioP1;P1;durP2;ratioP2;P2;SDS_P1;SDS_P2;PMS_P1;PMS_P2;Temp;Humidity;BMP_temperature;BMP_pressure;BME280_temperature;BME280_humidity;BME280_pressure;Samples;Min_cycle;Max_cycle;Signal;HPM_P1;HPM_P2
2021/03/10 00:01:46;;;;;;;24.77;16.83;;;;;;;7.77;100.00;101712.88;1874170;74;937205;-76
2021/03/10 00:04:16;;;;;;;22.97;16.00;;;;;;;7.73;100.00;101713.08;1874119;75;938612;-76
2021/03/10 00:06:46;;;;;;;26.20;16.83;;;;;;;7.80;100.00;101706.01;1874308;75;936763;-75
2021/03/10 00:09:17;;;;;;;22.70;15.50;;;;;;;7.80;100.00;101710.16;1874097;75;938710;-75
2021/03/10 00:11:46;;;;;;;22.50;16.23;;;;;;;7.77;100.00;101697.67;1874245;75;936914;-76
2021/03/10 00:14:16;;;;;;;24.80;16.23;;;;;;;7.78;100.00;101695.21;1874025;75;938652;-76
2021/03/10 00:16:46;;;;;;;22.57;15.93;;;;;;;7.71;100.00;101697.26;1874172;75;936960;-75
2021/03/10 00:19:16;;;;;;;26.07;16.97;;;;;;;7.68;100.00;101692.77;1874090;75;938596;-75
2021/03/10 00:21:47;;;;;;;22.87;16.23;;;;;;;7.82;100.00;101695.55;1874278;75;936833;-75
2021/03/10 00:24:18;;;;;;;22.87;16.80;;;;;;;7.78;100.00;101693.83;1874259;75;938894;-75
2021/03/10 00:26:49;;;;;;;24.53;15.57;;;;;;;7.84;100.00;101690.59;1874291;74;936743;-75
2021/03/10 00:29:19;;;;;;;23.50;16.40;;;;;;;7.76;100.00;101692.38;1874100;75;938716;-75
2021/03/10 00:31:50;;;;;;;31.77;17.57;;;;;;;7.71;100.00;101692.27;1868732;75;938662;-76
2021/03/10 00:34:20;;;;;;;23.00;16.40;;;;;;;7.72;100.00;101684.28;1871822;75;937394;-75
2021/03/10 00:36:50;;;;;;;22.33;16.60;;;;;;;7.65;100.00;101689.97;1862065;75;938640;-75
2021/03/10 00:39:20;;;;;;;26.50;17.23;;;;;;;7.70;100.00;101683.12;1858724;76;939155;-75
2021/03/10 00:41:50;;;;;;;22.03;15.67;;;;;;;7.68;100.00;101676.17;1849093;76;938782;-76
2021/03/10 00:44:20;;;;;;;23.10;17.17;;;;;;;7.72;100.00;101667.69;1859140;76;938642;-76
2021/03/10 00:46:50;;;;;;;25.33;17.43;;;;;;;7.83;100.00;101665.97;1850441;76;938689;-76
2021/03/10 00:49:20;;;;;;;25.40;17.33;;;;;;;7.67;100.00;101660.66;1858852;76;938617;-75
2021/03/10 00:51:50;;;;;;;24.27;15.75;;;;;;;7.64;100.00;101661.16;1850167;76;938919;-76
2021/03/10 00:54:20;;;;;;;25.30;17.07;;;;;;;7.64;100.00;101657.86;1859014;76;938667;-75
2021/03/10 00:56:50;;;;;;;25.10;16.93;;;;;;;7.83;100.00;101656.29;1848522;76;938909;-76
2021/03/10 00:59:20;;;;;;;26.20;16.87;;;;;;;7.79;100.00;101654.53;1851789;76;938556;-75
2021/03/10 01:01:50;;;;;;;22.93;16.12;;;;;;;7.78;100.00;101652.88;1849084;75;938933;-75
2021/03/10 01:04:20;;;;;;;24.27;16.75;;;;;;;7.75;100.00;101650.59;1859016;76;938863;-75
2021/03/10 01:06:50;;;;;;;21.87;15.47;;;;;;;7.71;100.00;101655.78;1848932;76;938623;-76
2021/03/10 01:09:20;;;;;;;25.07;17.40;;;;;;;7.67;100.00;101653.75;1859173;76;938685;-75
2021/03/10 01:11:50;;;;;;;24.77;17.20;;;;;;;7.83;100.00;101662.63;1846674;76;939080;-75
2021/03/10 01:14:20;;;;;;;21.33;15.67;;;;;;;7.82;100.00;101663.75;1842420;76;938505;-75
2021/03/10 01:16:50;;;;;;;23.15;15.75;;;;;;;7.75;100.00;101662.50;1860053;76;938701;-76
2021/03/10 01:19:20;;;;;;;25.27;16.40;;;;;;;7.67;100.00;101665.66;1860729;76;938681;-75
2021/03/10 01:21:50;;;;;;;28.98;17.77;;;;;;;7.77;100.00;101670.55;1859414;76;937908;-75
2021/03/10 01:24:20;;;;;;;22.45;16.27;;;;;;;7.70;100.00;101665.16;1866393;76;938640;-75
2021/03/10 01:26:50;;;;;;;22.93;16.00;;;;;;;7.70;100.00;101666.53;1857886;76;938882;-76
2021/03/10 01:29:21;;;;;;;24.53;16.70;;;;;;;7.82;100.00;101658.22;1860511;76;938879;-75
2021/03/10 01:31:51;;;;;;;25.63;16.83;;;;;;;7.81;100.00;101654.30;1855464;76;938833;-76
2021/03/10 01:34:21;;;;;;;26.47;17.33;;;;;;;7.83;100.00;101652.95;1867731;76;938832;-76
2021/03/10 01:36:51;;;;;;;23.57;16.13;;;;;;;7.87;100.00;101647.25;1855150;76;938694;-76
2021/03/10 01:39:21;;;;;;;23.60;16.03;;;;;;;7.95;100.00;101639.09;1867663;76;938596;-76
2021/03/10 01:41:51;;;;;;;22.22;15.90;;;;;;;7.97;100.00;101632.20;1855352;76;938765;-74
2021/03/10 01:44:21;;;;;;;26.33;16.53;;;;;;;7.99;100.00;101625.05;1867581;76;938731;-76
2021/03/10 01:46:51;;;;;;;27.63;16.83;;;;;;;8.07;100.00;101613.57;1855351;76;938661;-76
2021/03/10 01:49:22;;;;;;;25.10;16.30;;;;;;;8.02;100.00;101611.55;1867707;76;938568;-75
2021/03/10 01:51:52;;;;;;;24.33;16.63;;;;;;;8.01;100.00;101609.02;1855251;76;938875;-76
2021/03/10 01:54:22;;;;;;;23.50;16.27;;;;;;;7.99;100.00;101611.22;1867633;76;938718;-75
2021/03/10 01:56:53;;;;;;;22.33;16.03;;;;;;;8.13;100.00;101609.78;1855349;76;939111;-76
2021/03/10 01:59:24;;;;;;;22.50;15.93;;;;;;;8.14;100.00;101595.71;1867602;76;938654;-75
2021/03/10 02:01:54;;;;;;;25.00;16.75;;;;;;;8.06;100.00;101589.21;1855190;75;938706;-76
2021/03/10 02:04:25;;;;;;;21.50;14.90;;;;;;;8.02;100.00;101588.03;1867537;76;938742;-76
2021/03/10 02:07:02;;;;;;;22.97;16.10;;;;;;;8.02;100.00;101576.13;1855491;76;938573;-76
2021/03/10 02:09:37;;;;;;;25.23;16.10;;;;;;;8.03;100.00;101575.89;1867198;76;939095;-75
2021/03/10 02:12:11;;;;;;;22.75;16.30;;;;;;;8.12;100.00;101571.63;1855310;76;938785;-75
2021/03/10 02:14:46;;;;;;;25.37;16.75;;;;;;;8.08;100.00;101570.45;1867060;74;936741;-74
2021/03/10 02:17:19;;;;;;;24.63;16.53;;;;;;;8.11;100.00;101560.25;1867574;76;938864;-75
2021/03/10 02:20:33;;;;;;;24.53;16.40;;;;;;;8.13;100.00;101561.36;1867522;76;936859;-75
2021/03/10 02:23:39;;;;;;;24.00;16.37;;;;;;;8.17;100.00;101557.84;1855280;76;938896;-76
2021/03/10 02:26:44;;;;;;;23.63;16.37;;;;;;;8.16;100.00;101546.50;1855485;76;938771;-74
2021/03/10 02:29:17;;;;;;;26.30;16.87;;;;;;;8.22;100.00;101548.24;1848039;75;938644;-75
2021/03/10 02:31:49;;;;;;;22.93;16.43;;;;;;;8.12;100.00;101543.11;1867652;76;936730;-75
2021/03/10 02:34:20;;;;;;;25.97;17.70;;;;;;;8.21;100.00;101531.91;1867610;76;938650;-75
2021/03/10 02:36:51;;;;;;;24.93;17.17;;;;;;;8.17;100.00;101543.20;1855380;76;938652;-75
2021/03/10 02:39:23;;;;;;;28.57;17.63;;;;;;;8.20;100.00;101544.91;1867593;76;938680;-75
2021/03/10 02:41:54;;;;;;;25.13;18.07;;;;;;;8.26;100.00;101531.96;1855281;76;938785;-75
2021/03/10 02:44:27;;;;;;;27.80;17.73;;;;;;;8.22;100.00;101531.64;1867609;76;938589;-75
2021/03/10 02:46:58;;;;;;;25.73;17.60;;;;;;;8.19;100.00;101526.62;1855417;76;938661;-76
2021/03/10 02:49:28;;;;;;;26.63;17.93;;;;;;;8.28;100.00;101523.42;1867554;76;938622;-75
2021/03/10 02:52:01;;;;;;;25.52;18.77;;;;;;;8.31;100.00;101530.69;1855312;76;940848;-75
2021/03/10 02:54:32;;;;;;;27.07;19.48;;;;;;;8.24;100.00;101515.63;1867449;76;938604;-76
2021/03/10 02:57:02;;;;;;;32.43;19.27;;;;;;;8.26;100.00;101511.20;1855396;76;938679;-75
2021/03/10 02:59:33;;;;;;;29.43;19.63;;;;;;;8.28;100.00;101512.34;1867601;75;938546;-75
2021/03/10 03:02:03;;;;;;;30.23;19.82;;;;;;;8.33;100.00;101504.16;1855066;75;938857;-75
2021/03/10 03:04:33;;;;;;;29.80;20.23;;;;;;;8.40;100.00;101500.66;1867475;76;938719;-75
2021/03/10 03:07:03;;;;;;;32.45;20.43;;;;;;;8.35;100.00;101490.88;1855367;76;938787;-76
2021/03/10 03:09:34;;;;;;;30.47;21.00;;;;;;;8.34;100.00;101480.92;1867635;76;938688;-75
2021/03/10 03:12:30;;;;;;;29.83;20.77;;;;;;;8.41;100.00;101477.42;1868901;77;86425;-72
2021/03/10 03:15:02;;;;;;;30.00;20.35;;;;;;;8.44;100.00;101485.20;1841713;75;946500;-72
2021/03/10 03:17:33;;;;;;;31.67;20.77;;;;;;;8.49;100.00;101470.05;1853506;75;938868;-71
2021/03/10 03:20:05;;;;;;;29.57;20.90;;;;;;;8.49;100.00;101472.28;1842730;74;938669;-72
2021/03/10 03:22:36;;;;;;;27.63;19.50;;;;;;;8.56;100.00;101473.45;1853813;74;937076;-71
2021/03/10 03:25:08;;;;;;;28.52;20.30;;;;;;;8.52;100.00;101465.38;1830897;75;938952;-72
2021/03/10 03:27:38;;;;;;;30.07;20.43;;;;;;;8.45;100.00;101473.05;1840730;76;936913;-72
2021/03/10 03:30:11;;;;;;;29.03;19.77;;;;;;;8.49;100.00;101468.13;1800482;76;938799;-72
2021/03/10 03:32:41;;;;;;;29.60;19.87;;;;;;;8.44;100.00;101461.67;1797964;77;936933;-72
2021/03/10 03:35:14;;;;;;;28.07;19.30;;;;;;;8.41;100.00;101459.42;1771876;76;938851;-72
2021/03/10 03:37:46;;;;;;;29.43;20.53;;;;;;;8.48;100.00;101465.59;1826085;76;936966;-72
2021/03/10 03:40:17;;;;;;;30.73;20.10;;;;;;;8.51;100.00;101461.80;1831928;76;938739;-72
2021/03/10 03:42:47;;;;;;;30.30;20.63;;;;;;;8.56;100.00;101470.14;1842906;75;936961;-72
2021/03/10 03:45:20;;;;;;;28.87;19.50;;;;;;;8.51;100.00;101467.87;1877795;73;938763;-72
2021/03/10 03:47:51;;;;;;;27.47;18.60;;;;;;;8.54;100.00;101451.59;1858277;75;938847;-73
2021/03/10 03:50:22;;;;;;;29.93;19.43;;;;;;;8.48;100.00;101456.75;1876118;74;938758;-72
2021/03/10 03:52:53;;;;;;;28.33;19.97;;;;;;;8.46;100.00;101455.34;1887284;73;938735;-72
2021/03/10 03:55:24;;;;;;;27.93;20.00;;;;;;;8.46;100.00;101442.89;1829693;76;938683;-72
2021/03/10 03:57:54;;;;;;;26.37;19.03;;;;;;;8.49;100.00;101439.05;1817486;77;938841;-72
2021/03/10 04:00:26;;;;;;;31.70;20.07;;;;;;;8.46;100.00;101438.19;1825931;76;938801;-72
2021/03/10 04:02:56;;;;;;;29.47;19.57;;;;;;;8.49;100.00;101444.59;1842903;75;938631;-71
2021/03/10 04:05:26;;;;;;;27.70;20.40;;;;;;;8.55;100.00;101446.34;1834952;76;938846;-72
2021/03/10 04:07:58;;;;;;;25.85;19.27;;;;;;;8.61;100.00;101448.06;1865756;75;938863;-71
2021/03/10 04:10:30;;;;;;;31.33;20.60;;;;;;;8.57;100.00;101436.38;1861689;75;938688;-71
2021/03/10 04:13:00;;;;;;;32.93;19.90;;;;;;;8.59;100.00;101433.66;1849245;74;938832;-71
2021/03/10 04:15:33;;;;;;;28.43;19.53;;;;;;;8.61;100.00;101427.84;1893814;75;938658;-71
2021/03/10 04:18:03;;;;;;;31.33;20.20;;;;;;;8.60;100.00;101434.50;1850416;75;938745;-73
2021/03/10 04:20:33;;;;;;;30.20;20.20;;;;;;;8.56;100.00;101445.77;1904535;73;938984;-71
2021/03/10 04:23:03;;;;;;;32.08;21.20;;;;;;;8.60;100.00;101444.19;1846828;76;938852;-71
2021/03/10 04:25:33;;;;;;;27.47;19.43;;;;;;;8.62;100.00;101435.90;1899649;73;938741;-72
2021/03/10 04:28:03;;;;;;;33.27;20.77;;;;;;;8.49;100.00;101425.75;1880748;75;938723;-74
2021/03/10 04:30:33;;;;;;;29.47;20.07;;;;;;;8.59;100.00;101428.12;1847238;75;939035;-72
2021/03/10 04:33:03;;;;;;;31.55;20.00;;;;;;;8.54;100.00;101427.20;1860662;74;938791;-71
2021/03/10 04:35:33;;;;;;;27.93;19.67;;;;;;;8.60;100.00;101430.34;1893133;75;938805;-71
2021/03/10 04:38:04;;;;;;;28.98;19.80;;;;;;;8.59;100.00;101417.04;1880931;74;938733;-72
2021/03/10 04:40:34;;;;;;;29.77;21.03;;;;;;;8.59;100.00;101418.42;1861176;76;939126;-72
2021/03/10 04:43:04;;;;;;;32.20;20.50;;;;;;;8.57;100.00;101413.67;1878625;75;938671;-71
2021/03/10 04:45:34;;;;;;;28.40;20.67;;;;;;;8.54;100.00;101409.21;1861085;76;938740;-71
2021/03/10 04:48:04;;;;;;;31.82;20.95;;;;;;;8.58;100.00;101409.83;1837907;75;938804;-72
2021/03/10 04:50:33;;;;;;;26.20;19.83;;;;;;;8.59;100.00;101406.51;1881254;74;938627;-72
2021/03/10 04:53:03;;;;;;;27.90;20.53;;;;;;;8.58;100.00;101399.29;1893494;74;938716;-71
2021/03/10 04:55:33;;;;;;;32.37;20.10;;;;;;;8.57;100.00;101395.68;1905944;74;938727;-72
2021/03/10 04:58:03;;;;;;;29.97;20.47;;;;;;;8.51;100.00;101396.73;1893420;74;938775;-72
2021/03/10 05:00:33;;;;;;;30.40;20.00;;;;;;;8.55;100.00;101392.35;1884731;74;938828;-71
2021/03/10 05:03:03;;;;;;;30.62;19.67;;;;;;;8.53;100.00;101379.30;1813447;77;938743;-71
2021/03/10 05:05:33;;;;;;;28.40;20.53;;;;;;;8.54;100.00;101381.52;1825316;77;938770;-71
2021/03/10 05:08:03;;;;;;;32.00;21.83;;;;;;;8.49;100.00;101375.92;1813117;77;938660;-72
2021/03/10 05:10:33;;;;;;;27.33;20.07;;;;;;;8.46;100.00;101378.67;1825287;77;938736;-72
2021/03/10 05:13:03;;;;;;;32.20;21.07;;;;;;;8.57;100.00;101368.53;1811509;76;938888;-72
2021/03/10 05:15:32;;;;;;;31.60;21.00;;;;;;;8.56;100.00;101368.23;1807556;77;938663;-72
2021/03/10 05:18:02;;;;;;;28.32;20.37;;;;;;;8.56;100.00;101363.54;1795827;77;938743;-72
2021/03/10 05:20:32;;;;;;;31.73;21.67;;;;;;;8.64;100.00;101366.42;1807638;77;939056;-72
2021/03/10 05:23:02;;;;;;;31.85;19.82;;;;;;;8.59;100.00;101367.20;1795633;77;938752;-72
2021/03/10 05:25:32;;;;;;;30.33;20.97;;;;;;;8.57;100.00;101369.92;1807489;77;938796;-73
2021/03/10 05:28:01;;;;;;;30.82;21.30;;;;;;;8.65;100.00;101354.22;1795743;77;938738;-74
2021/03/10 05:30:31;;;;;;;33.60;21.10;;;;;;;8.61;100.00;101349.76;1807548;77;938667;-73
2021/03/10 05:33:01;;;;;;;33.97;21.33;;;;;;;8.59;100.00;101349.74;1795675;77;938734;-73
2021/03/10 05:35:31;;;;;;;33.27;22.37;;;;;;;8.61;100.00;101346.15;1807465;77;938762;-73
2021/03/10 05:38:01;;;;;;;35.78;22.10;;;;;;;8.64;100.00;101340.92;1795707;77;938819;-72
2021/03/10 05:40:33;;;;;;;35.03;21.77;;;;;;;8.62;100.00;101342.30;1807476;77;938751;-72
2021/03/10 05:43:03;;;;;;;32.60;21.27;;;;;;;8.54;100.00;101332.52;1817067;76;938758;-72
2021/03/10 05:45:33;;;;;;;33.67;22.23;;;;;;;8.60;100.00;101333.42;1816792;76;938850;-72
2021/03/10 05:48:03;;;;;;;30.90;21.23;;;;;;;8.58;100.00;101330.91;1827696;77;938759;-72
2021/03/10 05:50:32;;;;;;;34.33;22.93;;;;;;;8.57;100.00;101327.84;1839616;77;938700;-72
2021/03/10 05:53:05;;;;;;;34.75;22.17;;;;;;;8.54;100.00;101323.38;1827730;77;938883;-72
2021/03/10 05:55:35;;;;;;;35.00;22.67;;;;;;;8.57;100.00;101315.92;1839712;77;938668;-72
2021/03/10 05:58:10;;;;;;;31.17;21.60;;;;;;;8.57;100.00;101315.92;1827919;77;938719;-73
2021/03/10 06:00:45;;;;;;;37.20;23.10;;;;;;;8.56;100.00;101309.55;1839911;77;937121;-72
2021/03/10 06:03:16;;;;;;;32.20;21.87;;;;;;;8.56;100.00;101304.02;1827784;77;938807;-71
2021/03/10 06:05:46;;;;;;;35.43;22.30;;;;;;;8.60;100.00;101294.66;1839798;77;937015;-72
2021/03/10 06:08:16;;;;;;;30.23;20.93;;;;;;;8.52;100.00;101290.41;1839805;77;938754;-72
2021/03/10 06:10:47;;;;;;;32.10;21.60;;;;;;;8.49;100.00;101284.55;1828080;77;936940;-71
2021/03/10 06:13:21;;;;;;;32.03;22.87;;;;;;;8.48;100.00;101278.18;1789256;77;938721;-72
2021/03/10 06:15:53;;;;;;;34.53;22.27;;;;;;;8.45;100.00;101266.80;1789274;77;938766;-72
2021/03/10 06:18:28;;;;;;;32.47;21.80;;;;;;;8.48;100.00;101259.34;1836429;77;938958;-72
2021/03/10 06:21:06;;;;;;;33.67;21.40;;;;;;;8.51;100.00;101260.23;1820057;76;938810;-71
2021/03/10 06:23:38;;;;;;;31.63;20.83;;;;;;;8.49;100.00;101247.18;1808026;78;936904;-72
2021/03/10 06:26:11;;;;;;;31.87;22.80;;;;;;;8.46;100.00;101249.09;1815579;76;938797;-71
2021/03/10 06:28:42;;;;;;;33.33;21.83;;;;;;;8.51;100.00;101247.77;1843924;76;936892;-72
2021/03/10 06:31:20;;;;;;;32.77;23.57;;;;;;;8.46;100.00;101246.33;1865371;75;938858;-72
2021/03/10 06:34:02;;;;;;;32.80;21.13;;;;;;;8.51;100.00;101243.08;1873072;74;938841;-72
2021/03/10 06:36:34;;;;;;;40.60;23.93;;;;;;;8.36;100.00;101226.30;1873644;75;938785;-72
2021/03/10 06:39:06;;;;;;;31.52;20.62;;;;;;;8.47;100.00;101231.40;1865028;75;938807;-71
2021/03/10 06:41:37;;;;;;;34.60;21.87;;;;;;;8.45;100.00;101233.58;1877749;75;936878;-72
2021/03/10 06:44:17;;;;;;;35.00;20.97;;;;;;;8.46;100.00;101222.25;1861319;74;938783;-72
2021/03/10 06:46:58;;;;;;;33.47;20.90;;;;;;;8.45;100.00;101206.73;1877772;74;936845;-72
2021/03/10 06:49:30;;;;;;;29.00;19.87;;;;;;;8.46;100.00;101204.80;1877751;74;938684;-73
2021/03/10 06:52:03;;;;;;;32.35;20.92;;;;;;;8.49;100.00;101195.42;1865416;74;938937;-72
2021/03/10 06:54:32;;;;;;;31.40;20.50;;;;;;;8.40;100.00;101199.76;1877666;75;938752;-72
2021/03/10 06:57:04;;;;;;;33.93;21.47;;;;;;;8.40;100.00;101197.54;1864103;75;938774;-73
2021/03/10 06:59:44;;;;;;;37.20;21.63;;;;;;;8.35;100.00;101188.63;1877701;75;938681;-72
2021/03/10 07:02:16;;;;;;;36.40;21.80;;;;;;;8.37;100.00;101182.30;1827183;75;938809;-72
2021/03/10 07:04:48;;;;;;;38.37;22.17;;;;;;;8.35;100.00;101184.48;1877697;75;936844;-73
2021/03/10 07:07:19;;;;;;;33.10;22.70;;;;;;;8.37;100.00;101177.31;1877481;75;938877;-74
2021/03/10 07:09:51;;;;;;;34.20;20.80;;;;;;;8.38;100.00;101165.98;1837770;76;938862;-72
2021/03/10 07:12:23;;;;;;;38.50;22.77;;;;;;;8.32;100.00;101155.95;1827728;76;938737;-71
2021/03/10 07:14:54;;;;;;;31.77;20.17;;;;;;;8.51;100.00;101154.48;1827111;76;939064;-72
2021/03/10 07:17:24;;;;;;;34.83;21.63;;;;;;;8.38;100.00;101158.23;1839095;75;938939;-72
2021/03/10 07:19:54;;;;;;;32.30;22.27;;;;;;;8.36;100.00;101162.63;1865157;75;939130;-73
2021/03/10 07:22:27;;;;;;;36.30;21.90;;;;;;;8.32;100.00;101159.27;1877604;75;938888;-73
2021/03/10 07:25:00;;;;;;;35.50;21.33;;;;;;;8.30;100.00;101158.71;1827396;76;938743;-72
2021/03/10 07:27:35;;;;;;;32.47;20.60;;;;;;;8.38;100.00;101148.55;1829771;76;938787;-74
2021/03/10 07:30:07;;;;;;;32.83;21.70;;;;;;;8.36;100.00;101150.17;1865338;74;938758;-74
2021/03/10 07:32:38;;;;;;;38.93;22.70;;;;;;;8.40;100.00;101147.72;1874538;75;936832;-72
2021/03/10 07:35:10;;;;;;;35.28;21.40;;;;;;;8.29;100.00;101141.78;1864932;75;938833;-72
2021/03/10 07:37:43;;;;;;;34.83;20.77;;;;;;;8.37;100.00;101146.87;1877443;75;936829;-72
2021/03/10 07:40:16;;;;;;;32.97;20.43;;;;;;;8.75;100.00;101145.78;1872894;74;938868;-72
2021/03/10 07:42:53;;;;;;;29.83;19.30;;;;;;;8.41;100.00;101139.16;1867690;75;937110;-72
2021/03/10 07:45:25;;;;;;;30.47;19.43;;;;;;;8.36;100.00;101141.87;1867765;75;938790;-71
2021/03/10 07:47:56;;;;;;;31.30;19.07;;;;;;;8.41;100.00;101137.77;1855508;75;938870;-72
2021/03/10 07:50:39;;;;;;;36.13;21.17;;;;;;;8.39;100.00;101149.64;1867851;75;938816;-72
2021/03/10 07:53:09;;;;;;;34.20;19.40;;;;;;;8.33;100.00;101138.80;1855549;75;941628;-72
2021/03/10 07:55:46;;;;;;;30.87;18.73;;;;;;;8.41;100.00;101142.47;1867843;75;937060;-72
2021/03/10 07:58:26;;;;;;;27.47;17.27;;;;;;;8.45;100.00;101140.84;1867717;75;938942;-72
2021/03/10 08:00:57;;;;;;;27.55;17.35;;;;;;;8.42;100.00;101132.53;1855594;75;939074;-73
2021/03/10 08:03:31;;;;;;;27.20;16.63;;;;;;;8.77;100.00;101123.62;1867917;75;938930;-72
2021/03/10 08:06:03;;;;;;;25.45;17.25;;;;;;;8.68;100.00;101122.48;1855710;75;938754;-72
2021/03/10 08:08:38;;;;;;;32.20;16.80;;;;;;;8.42;100.00;101128.37;1867886;75;938798;-72
2021/03/10 08:11:14;;;;;;;27.33;16.93;;;;;;;8.49;100.00;101126.75;1855611;75;938000;-72
2021/03/10 08:13:47;;;;;;;25.77;16.05;;;;;;;8.51;100.00;101124.02;1878426;75;936922;-72
2021/03/10 08:16:17;;;;;;;26.43;16.43;;;;;;;8.59;100.00;101126.84;1881311;74;938704;-72
2021/03/10 08:18:48;;;;;;;26.40;16.30;;;;;;;8.52;100.00;101131.20;1876585;73;937108;-72
2021/03/10 08:21:19;;;;;;;26.57;16.60;;;;;;;8.56;100.00;101137.05;1877661;75;938597;-72
2021/03/10 08:23:50;;;;;;;24.73;15.90;;;;;;;8.59;100.00;101127.69;1877811;75;936871;-71
2021/03/10 08:26:43;;;;;;;24.77;16.53;;;;;;;8.48;100.00;101133.38;1899852;73;938699;-72
2021/03/10 08:29:13;;;;;;;25.33;16.00;;;;;;;8.51;100.00;101130.11;1886559;74;938808;-72
2021/03/10 08:31:48;;;;;;;28.97;16.37;;;;;;;8.50;100.00;101122.89;1895080;74;936892;-72
2021/03/10 08:34:30;;;;;;;22.53;13.93;;;;;;;8.67;100.00;101120.27;1873791;74;938798;-71
2021/03/10 08:37:01;;;;;;;26.33;15.93;;;;;;;8.66;100.00;101120.52;1827179;76;938705;-71
2021/03/10 08:39:31;;;;;;;26.67;15.53;;;;;;;8.60;100.00;101125.75;1839161;76;938820;-71
2021/03/10 08:42:01;;;;;;;27.22;15.03;;;;;;;8.68;100.00;101128.02;1827297;75;938907;-72
2021/03/10 08:44:33;;;;;;;26.53;15.10;;;;;;;8.68;100.00;101119.72;1889977;74;938706;-71
2021/03/10 08:47:06;;;;;;;24.45;14.73;;;;;;;8.63;100.00;101128.82;1882459;74;938694;-72
2021/03/10 08:49:36;;;;;;;26.57;15.17;;;;;;;8.68;100.00;101128.83;1895071;74;937015;-71
2021/03/10 08:52:09;;;;;;;27.07;16.67;;;;;;;8.70;100.00;101127.20;1883275;74;938817;-72
2021/03/10 08:54:57;;;;;;;24.67;14.90;;;;;;;8.68;100.00;101124.68;1895781;74;936885;-71
2021/03/10 08:57:29;;;;;;;24.57;16.07;;;;;;;8.67;100.00;101118.05;1892080;74;938748;-71
2021/03/10 09:00:00;;;;;;;24.92;15.88;;;;;;;8.67;100.00;101124.41;1898142;73;938869;-72
2021/03/10 09:02:31;;;;;;;23.53;15.43;;;;;;;8.62;100.00;101131.30;1910821;74;938766;-72
2021/03/10 09:05:03;;;;;;;25.47;15.70;;;;;;;8.61;100.00;101117.70;1877952;74;938696;-71
2021/03/10 09:07:34;;;;;;;26.37;16.73;;;;;;;8.64;100.00;101122.73;1887457;74;938759;-71
2021/03/10 09:10:10;;;;;;;25.30;15.48;;;;;;;8.72;100.00;101122.23;1897869;74;938880;-72
2021/03/10 09:12:43;;;;;;;24.00;15.30;;;;;;;8.76;100.00;101136.38;1910459;74;936733;-72
2021/03/10 09:15:15;;;;;;;27.45;15.68;;;;;;;8.68;100.00;101118.33;1898031;74;938984;-72
2021/03/10 09:17:45;;;;;;;26.00;16.47;;;;;;;8.68;100.00;101128.02;1880372;74;936866;-71
2021/03/10 09:20:24;;;;;;;29.63;16.47;;;;;;;8.71;100.00;101121.11;1877535;73;939035;-72
2021/03/10 09:22:54;;;;;;;24.83;15.73;;;;;;;8.73;100.00;101116.16;1878826;74;938718;-71
2021/03/10 09:25:26;;;;;;;23.83;16.20;;;;;;;8.72;100.00;101116.70;1874229;75;938708;-72
2021/03/10 09:28:08;;;;;;;24.52;16.55;;;;;;;8.72;100.00;101111.16;1866726;73;938867;-72
2021/03/10 09:30:40;;;;;;;22.43;14.67;;;;;;;8.73;100.00;101114.77;1879560;73;936853;-72
2021/03/10 09:33:20;;;;;;;24.43;15.50;;;;;;;8.77;100.00;101100.09;1867625;75;938796;-72
2021/03/10 09:35:56;;;;;;;24.23;15.73;;;;;;;8.75;100.00;101109.23;1864231;75;938791;-73
2021/03/10 09:38:27;;;;;;;24.07;16.03;;;;;;;8.69;100.00;101095.05;1877772;75;938838;-72
2021/03/10 09:40:59;;;;;;;32.13;16.43;;;;;;;8.77;100.00;101094.55;1865401;74;938870;-72
2021/03/10 09:43:30;;;;;;;26.10;16.00;;;;;;;8.76;100.00;101090.14;1884256;74;939002;-72
2021/03/10 09:46:02;;;;;;;23.80;14.83;;;;;;;8.72;100.00;101087.62;1865231;75;945524;-72
2021/03/10 09:48:35;;;;;;;24.23;14.77;;;;;;;8.68;100.00;101082.33;1877671;74;938719;-72
2021/03/10 09:51:08;;;;;;;23.27;15.33;;;;;;;8.75;100.00;101075.16;1865524;74;938732;-72
2021/03/10 09:53:42;;;;;;;28.47;15.00;;;;;;;8.63;100.00;101073.44;1877728;74;936822;-72
2021/03/10 09:56:14;;;;;;;25.30;15.47;;;;;;;8.68;100.00;101076.22;1872853;74;938771;-73
2021/03/10 09:58:54;;;;;;;24.27;14.87;;;;;;;8.68;100.00;101076.22;1903728;74;937130;-72
2021/03/10 10:01:25;;;;;;;22.40;14.68;;;;;;;8.66;100.00;101080.36;1910740;74;938867;-71
2021/03/10 10:03:57;;;;;;;20.25;13.58;;;;;;;8.67;100.00;101080.66;1898198;74;938733;-71
2021/03/10 10:06:27;;;;;;;22.07;12.90;;;;;;;8.65;100.00;101074.53;1884331;74;938833;-72
2021/03/10 10:08:58;;;;;;;20.50;13.47;;;;;;;8.78;100.00;101078.77;1865330;75;938760;-72
2021/03/10 10:11:28;;;;;;;24.23;13.23;;;;;;;8.84;100.00;101069.40;1877720;74;938811;-73
2021/03/10 10:13:57;;;;;;;19.87;13.18;;;;;;;8.86;100.00;101070.78;1865252;75;939055;-72
2021/03/10 10:16:27;;;;;;;26.83;12.37;;;;;;;8.74;100.00;101061.02;1877740;75;938735;-73
2021/03/10 10:18:58;;;;;;;20.67;13.57;;;;;;;8.75;100.00;101050.23;1895597;74;937930;-72
2021/03/10 10:21:28;;;;;;;18.07;11.30;;;;;;;8.80;100.00;101044.19;1910523;72;939106;-72
2021/03/10 10:23:59;;;;;;;17.80;11.70;;;;;;;8.83;100.00;101023.41;1864944;74;938949;-72
2021/03/10 10:26:29;;;;;;;17.53;11.93;;;;;;;8.74;100.00;101022.25;1839067;75;938946;-72
2021/03/10 10:28:59;;;;;;;18.17;11.00;;;;;;;8.74;100.00;101018.94;1826044;76;938584;-72
2021/03/10 10:31:29;;;;;;;15.30;10.80;;;;;;;8.84;100.00;101011.23;1824739;77;938712;-72
2021/03/10 10:33:59;;;;;;;13.90;10.40;;;;;;;8.17;100.00;100910.92;1829738;76;938833;-72
2021/03/10 10:36:29;;;;;;;15.80;11.17;;;;;;;8.74;100.00;101013.94;1863364;75;938902;-72
2021/03/10 10:38:59;;;;;;;14.47;9.63;;;;;;;8.71;100.00;101006.19;1851472;74;938686;-72
2021/03/10 10:41:29;;;;;;;16.17;9.73;;;;;;;8.64;100.00;101002.28;1874002;74;936689;-73
2021/03/10 10:43:59;;;;;;;18.27;9.83;;;;;;;8.68;100.00;100998.68;1863665;75;936731;-72
2021/03/10 10:46:29;;;;;;;14.53;9.95;;;;;;;8.73;100.00;100997.06;1876854;75;936648;-72
2021/03/10 10:48:59;;;;;;;15.20;10.13;;;;;;;8.73;100.00;100996.48;1865206;74;936800;-72
2021/03/10 10:51:30;;;;;;;15.47;9.37;;;;;;;8.73;100.00;100994.30;1877676;75;938885;-72
2021/03/10 10:54:00;;;;;;;15.48;8.63;;;;;;;8.65;100.00;100988.70;1817969;76;936749;-72
2021/03/10 10:56:30;;;;;;;11.53;8.23;;;;;;;8.70;100.00;100991.50;1844290;75;936641;-72
2021/03/10 10:59:00;;;;;;;14.27;8.93;;;;;;;8.66;100.00;100996.75;1848843;76;936578;-72
2021/03/10 11:01:30;;;;;;;15.50;8.73;;;;;;;8.73;100.00;100989.56;1808136;77;936844;-72
2021/03/10 11:04:00;;;;;;;13.40;8.05;;;;;;;8.74;100.00;100985.70;1851024;75;936655;-72
2021/03/10 11:06:30;;;;;;;12.67;7.67;;;;;;;8.75;100.00;100987.38;1808075;77;936601;-72
2021/03/10 11:09:00;;;;;;;12.13;7.87;;;;;;;8.77;100.00;100989.88;1846988;74;941543;-72
2021/03/10 11:11:30;;;;;;;10.87;6.73;;;;;;;8.72;100.00;100992.63;1888592;74;936540;-74
2021/03/10 11:14:00;;;;;;;12.03;7.30;;;;;;;8.63;100.00;100984.00;1866546;74;936706;-73
2021/03/10 11:16:30;;;;;;;11.17;6.80;;;;;;;8.72;100.00;100978.23;1883944;74;936695;-73
2021/03/10 11:19:00;;;;;;;11.55;7.42;;;;;;;8.79;100.00;100977.42;1865333;74;936839;-73
2021/03/10 11:21:30;;;;;;;12.43;6.87;;;;;;;8.77;100.00;100956.66;1877682;75;936771;-73
2021/03/10 11:23:59;;;;;;;10.03;6.87;;;;;;;8.78;100.00;100972.14;1865283;73;936704;-73